Hub


Voltar

 INFORMAÇÕES METEOROLÓGICAS

METAR FOR PASX


ADDS - METARS form results

(0748 UTC 25 August 2019)
Data provider http://aviationweather.gov/metar/data/
 
METAR text: PASX 250656Z AUTO 00000KT 10SM CLR 11/04 A2983 RMK AO2 SLP111 T01110044
Conditions at: PASX (SOLDOTNA , AK, US) observed 0656 UTC 25 August 2019
Temperature: 11.1°C (52°F)
Dewpoint: 4.4°C (40°F) [RH = 63%]
Pressure (altimeter): 29.83 inches Hg (1010.2 mb)
[Sea-level pressure: 1011.1 mb]
Winds: calm
Visibility: 10 or more miles (16+ km)
Ceiling: at least 12,000 feet AGL
Clouds: sky clear below 12,000 feet AGL
Weather: automated observation with no human augmentation;
there may or may not be significant weather present at this time


 MAPA DO AEROPORTO


 INFORMAÇÕES DA PISTA

Pista 07 Tamanho da pista 5000 ft Largura da pista 132 ft
Elevação da pista 96 ft Ranhura da pista 0 ft Proa da pista 90
Pista 25 Tamanho da pista 5000 ft Largura da pista 132 ft
Elevação da pista 113 ft Ranhura da pista 0 ft Proa da pista 270

 FREQUÊNCIAS DO AEROPORTO

Tipo AWOS Nome AWOS 3 Frequência 135.45 MHZ
Tipo CNTR Nome ANCHORAGE Frequência 125.7 MHZ
Tipo CTAF Nome CTAF Frequência 122.5 MHZ
Tipo FSS Nome KENAI RDO Frequência 122.35 MHZ
Tipo MISC Nome TWEB Frequência 117.6 MHZ

 AUXÍLIOS DE NAVEGAÇÃO PRÓXIMOS AO AEROPORTO

Tipo NDB-DME Nome Soldotna Frequência 346 KHZ